sensor_id;sensor_type;location;lat;lon;timestamp;pressure;altitude;pressure_sealevel;temperature;humidity
60583;BME280;46415;47.536;19.066;2022-12-18T00:00:06;101833.47;;;-3.07;100.00
60583;BME280;46415;47.536;19.066;2022-12-18T00:03:14;101838.38;;;-3.11;100.00
60583;BME280;46415;47.536;19.066;2022-12-18T00:06:18;101843.25;;;-3.17;100.00
60583;BME280;46415;47.536;19.066;2022-12-18T00:09:21;101840.94;;;-3.10;100.00
60583;BME280;46415;47.536;19.066;2022-12-18T00:12:26;101849.72;;;-3.02;100.00
60583;BME280;46415;47.536;19.066;2022-12-18T00:15:34;101851.81;;;-3.14;100.00
60583;BME280;46415;47.536;19.066;2022-12-18T00:18:37;101875.00;;;-3.05;100.00
60583;BME280;46415;47.536;19.066;2022-12-18T00:21:40;101872.56;;;-3.02;100.00
60583;BME280;46415;47.536;19.066;2022-12-18T00:24:43;101883.50;;;-3.04;100.00
60583;BME280;46415;47.536;19.066;2022-12-18T00:27:46;101898.19;;;-2.96;100.00
60583;BME280;46415;47.536;19.066;2022-12-18T00:30:48;101907.84;;;-3.09;100.00
60583;BME280;46415;47.536;19.066;2022-12-18T00:33:54;101913.78;;;-3.09;100.00
60583;BME280;46415;47.536;19.066;2022-12-18T00:36:58;101914.25;;;-3.19;100.00
60583;BME280;46415;47.536;19.066;2022-12-18T00:40:00;101917.59;;;-3.20;100.00
60583;BME280;46415;47.536;19.066;2022-12-18T00:43:03;101920.56;;;-3.32;100.00
60583;BME280;46415;47.536;19.066;2022-12-18T00:46:06;101911.34;;;-3.30;100.00
60583;BME280;46415;47.536;19.066;2022-12-18T00:49:13;101919.34;;;-3.19;100.00
60583;BME280;46415;47.536;19.066;2022-12-18T00:52:16;101920.72;;;-3.27;100.00
60583;BME280;46415;47.536;19.066;2022-12-18T00:55:19;101917.16;;;-3.32;100.00
60583;BME280;46415;47.536;19.066;2022-12-18T00:58:21;101919.75;;;-3.31;100.00
60583;BME280;46415;47.536;19.066;2022-12-18T01:01:24;101924.19;;;-3.25;100.00
60583;BME280;46415;47.536;19.066;2022-12-18T01:04:31;101926.72;;;-3.25;100.00
60583;BME280;46415;47.536;19.066;2022-12-18T01:07:35;101939.34;;;-3.26;100.00
60583;BME280;46415;47.536;19.066;2022-12-18T01:10:40;101944.19;;;-3.33;100.00
60583;BME280;46415;47.536;19.066;2022-12-18T01:13:43;101948.31;;;-3.36;100.00
60583;BME280;46415;47.536;19.066;2022-12-18T01:16:46;101952.44;;;-3.38;100.00
60583;BME280;46415;47.536;19.066;2022-12-18T01:19:49;101957.44;;;-3.41;100.00
60583;BME280;46415;47.536;19.066;2022-12-18T01:22:51;101950.38;;;-3.48;100.00
60583;BME280;46415;47.536;19.066;2022-12-18T01:25:54;101953.88;;;-3.45;100.00
60583;BME280;46415;47.536;19.066;2022-12-18T01:28:58;101973.22;;;-3.48;100.00
60583;BME280;46415;47.536;19.066;2022-12-18T01:32:00;101957.41;;;-3.63;100.00
60583;BME280;46415;47.536;19.066;2022-12-18T01:35:05;101954.53;;;-3.50;100.00
60583;BME280;46415;47.536;19.066;2022-12-18T01:38:08;101958.47;;;-3.58;100.00
60583;BME280;46415;47.536;19.066;2022-12-18T01:41:11;101967.41;;;-3.46;100.00
60583;BME280;46415;47.536;19.066;2022-12-18T01:44:51;101962.03;;;-3.53;100.00
60583;BME280;46415;47.536;19.066;2022-12-18T01:48:00;101975.53;;;-3.54;100.00
60583;BME280;46415;47.536;19.066;2022-12-18T01:51:04;101979.41;;;-3.62;100.00
60583;BME280;46415;47.536;19.066;2022-12-18T01:54:07;101980.34;;;-3.60;100.00
60583;BME280;46415;47.536;19.066;2022-12-18T01:57:10;101980.47;;;-3.57;100.00
60583;BME280;46415;47.536;19.066;2022-12-18T02:00:18;101976.09;;;-3.39;100.00
60583;BME280;46415;47.536;19.066;2022-12-18T02:03:21;101989.37;;;-3.46;100.00
60583;BME280;46415;47.536;19.066;2022-12-18T02:06:38;101991.31;;;-3.39;100.00
60583;BME280;46415;47.536;19.066;2022-12-18T02:10:06;101994.00;;;-3.57;100.00
60583;BME280;46415;47.536;19.066;2022-12-18T02:13:28;101992.00;;;-3.65;100.00
60583;BME280;46415;47.536;19.066;2022-12-18T02:26:34;102012.53;;;-3.59;100.00
60583;BME280;46415;47.536;19.066;2022-12-18T02:29:48;102006.53;;;-3.61;100.00
60583;BME280;46415;47.536;19.066;2022-12-18T02:33:01;102014.13;;;-3.61;100.00
60583;BME280;46415;47.536;19.066;2022-12-18T02:36:09;102026.56;;;-3.67;100.00
60583;BME280;46415;47.536;19.066;2022-12-18T02:39:13;102028.78;;;-3.75;100.00
60583;BME280;46415;47.536;19.066;2022-12-18T02:42:19;102031.06;;;-3.81;100.00
60583;BME280;46415;47.536;19.066;2022-12-18T02:45:22;102032.28;;;-3.73;100.00
60583;BME280;46415;47.536;19.066;2022-12-18T02:48:32;102033.63;;;-3.81;100.00
60583;BME280;46415;47.536;19.066;2022-12-18T02:55:00;102041.00;;;-3.66;100.00
60583;BME280;46415;47.536;19.066;2022-12-18T02:58:17;102052.34;;;-3.58;100.00
60583;BME280;46415;47.536;19.066;2022-12-18T03:01:33;102047.66;;;-3.68;100.00
60583;BME280;46415;47.536;19.066;2022-12-18T03:04:43;102056.09;;;-3.69;100.00
60583;BME280;46415;47.536;19.066;2022-12-18T03:07:57;102057.69;;;-3.72;100.00
60583;BME280;46415;47.536;19.066;2022-12-18T03:11:05;102068.47;;;-3.77;100.00
60583;BME280;46415;47.536;19.066;2022-12-18T03:14:10;102073.03;;;-3.68;100.00
60583;BME280;46415;47.536;19.066;2022-12-18T03:17:17;102061.50;;;-3.81;100.00
60583;BME280;46415;47.536;19.066;2022-12-18T03:20:24;102066.16;;;-3.92;100.00
60583;BME280;46415;47.536;19.066;2022-12-18T03:23:32;102065.75;;;-3.82;100.00
60583;BME280;46415;47.536;19.066;2022-12-18T03:26:41;102074.50;;;-3.94;100.00
60583;BME280;46415;47.536;19.066;2022-12-18T03:30:02;102084.37;;;-4.00;100.00
60583;BME280;46415;47.536;19.066;2022-12-18T03:33:19;102088.44;;;-4.04;100.00
60583;BME280;46415;47.536;19.066;2022-12-18T03:36:23;102095.00;;;-4.09;100.00
60583;BME280;46415;47.536;19.066;2022-12-18T03:39:26;102096.72;;;-4.08;100.00
60583;BME280;46415;47.536;19.066;2022-12-18T03:42:49;102098.13;;;-4.15;100.00
60583;BME280;46415;47.536;19.066;2022-12-18T03:46:02;102105.63;;;-4.18;100.00
60583;BME280;46415;47.536;19.066;2022-12-18T03:49:11;102121.44;;;-4.23;100.00
60583;BME280;46415;47.536;19.066;2022-12-18T03:53:00;102118.03;;;-4.24;100.00
60583;BME280;46415;47.536;19.066;2022-12-18T03:56:00;102115.25;;;-4.28;100.00
60583;BME280;46415;47.536;19.066;2022-12-18T03:59:07;102110.75;;;-4.35;100.00
60583;BME280;46415;47.536;19.066;2022-12-18T04:02:12;102114.00;;;-4.38;100.00
60583;BME280;46415;47.536;19.066;2022-12-18T04:05:16;102114.66;;;-4.42;100.00
60583;BME280;46415;47.536;19.066;2022-12-18T04:08:21;102118.19;;;-4.38;100.00
60583;BME280;46415;47.536;19.066;2022-12-18T04:11:25;102125.19;;;-4.33;100.00
60583;BME280;46415;47.536;19.066;2022-12-18T04:14:28;102131.66;;;-4.39;100.00
60583;BME280;46415;47.536;19.066;2022-12-18T04:17:31;102133.12;;;-4.44;100.00
60583;BME280;46415;47.536;19.066;2022-12-18T04:20:34;102133.78;;;-4.48;100.00
60583;BME280;46415;47.536;19.066;2022-12-18T04:23:38;102128.44;;;-4.55;100.00
60583;BME280;46415;47.536;19.066;2022-12-18T04:26:41;102127.78;;;-4.50;100.00
60583;BME280;46415;47.536;19.066;2022-12-18T04:29:44;102128.25;;;-4.59;100.00
60583;BME280;46415;47.536;19.066;2022-12-18T04:32:47;102139.00;;;-4.63;100.00
60583;BME280;46415;47.536;19.066;2022-12-18T04:35:54;102135.09;;;-4.57;100.00
60583;BME280;46415;47.536;19.066;2022-12-18T04:38:57;102142.63;;;-4.58;100.00
60583;BME280;46415;47.536;19.066;2022-12-18T04:42:00;102145.97;;;-4.59;100.00
60583;BME280;46415;47.536;19.066;2022-12-18T04:45:03;102149.00;;;-4.48;100.00
60583;BME280;46415;47.536;19.066;2022-12-18T04:48:06;102156.25;;;-4.56;100.00
60583;BME280;46415;47.536;19.066;2022-12-18T04:51:08;102155.25;;;-4.60;100.00
60583;BME280;46415;47.536;19.066;2022-12-18T04:54:11;102173.88;;;-4.58;100.00
60583;BME280;46415;47.536;19.066;2022-12-18T04:57:14;102172.16;;;-4.59;100.00
60583;BME280;46415;47.536;19.066;2022-12-18T05:00:16;102172.81;;;-4.63;100.00
60583;BME280;46415;47.536;19.066;2022-12-18T05:03:19;102173.59;;;-4.64;100.00
60583;BME280;46415;47.536;19.066;2022-12-18T05:06:22;102175.13;;;-4.67;100.00
60583;BME280;46415;47.536;19.066;2022-12-18T05:09:24;102178.25;;;-4.73;100.00
60583;BME280;46415;47.536;19.066;2022-12-18T05:12:27;102181.44;;;-4.77;100.00
60583;BME280;46415;47.536;19.066;2022-12-18T05:15:30;102191.91;;;-4.69;100.00
60583;BME280;46415;47.536;19.066;2022-12-18T05:18:34;102195.78;;;-4.77;100.00
60583;BME280;46415;47.536;19.066;2022-12-18T05:21:37;102187.94;;;-4.82;100.00
60583;BME280;46415;47.536;19.066;2022-12-18T05:24:39;102188.69;;;-4.84;100.00
60583;BME280;46415;47.536;19.066;2022-12-18T05:27:42;102187.88;;;-4.83;100.00
60583;BME280;46415;47.536;19.066;2022-12-18T05:30:53;102203.13;;;-4.82;100.00
60583;BME280;46415;47.536;19.066;2022-12-18T05:33:56;102204.88;;;-4.81;100.00
60583;BME280;46415;47.536;19.066;2022-12-18T05:36:59;102198.34;;;-4.76;100.00
60583;BME280;46415;47.536;19.066;2022-12-18T05:40:03;102209.84;;;-4.82;100.00
60583;BME280;46415;47.536;19.066;2022-12-18T05:43:06;102218.19;;;-4.85;100.00
60583;BME280;46415;47.536;19.066;2022-12-18T05:46:15;102214.13;;;-4.81;100.00
60583;BME280;46415;47.536;19.066;2022-12-18T05:49:18;102221.31;;;-4.73;100.00
60583;BME280;46415;47.536;19.066;2022-12-18T05:52:20;102220.22;;;-4.78;100.00
60583;BME280;46415;47.536;19.066;2022-12-18T05:55:23;102229.19;;;-4.67;100.00
60583;BME280;46415;47.536;19.066;2022-12-18T05:58:26;102232.09;;;-4.77;100.00
60583;BME280;46415;47.536;19.066;2022-12-18T06:01:28;102247.28;;;-4.77;100.00
60583;BME280;46415;47.536;19.066;2022-12-18T06:04:32;102250.66;;;-4.76;100.00
60583;BME280;46415;47.536;19.066;2022-12-18T06:07:35;102244.75;;;-4.77;100.00
60583;BME280;46415;47.536;19.066;2022-12-18T06:10:40;102249.00;;;-4.76;100.00
60583;BME280;46415;47.536;19.066;2022-12-18T06:13:42;102253.06;;;-4.79;100.00
60583;BME280;46415;47.536;19.066;2022-12-18T06:16:45;102245.38;;;-4.81;100.00
60583;BME280;46415;47.536;19.066;2022-12-18T06:19:48;102244.69;;;-4.78;100.00
60583;BME280;46415;47.536;19.066;2022-12-18T06:22:50;102258.03;;;-4.81;100.00
60583;BME280;46415;47.536;19.066;2022-12-18T06:25:53;102260.56;;;-4.81;100.00
60583;BME280;46415;47.536;19.066;2022-12-18T06:28:56;102265.22;;;-4.72;100.00
60583;BME280;46415;47.536;19.066;2022-12-18T06:31:59;102263.78;;;-4.67;100.00
60583;BME280;46415;47.536;19.066;2022-12-18T06:35:02;102272.62;;;-4.77;100.00
60583;BME280;46415;47.536;19.066;2022-12-18T06:38:06;102272.44;;;-4.80;100.00
60583;BME280;46415;47.536;19.066;2022-12-18T06:41:11;102281.63;;;-4.82;100.00
60583;BME280;46415;47.536;19.066;2022-12-18T06:44:15;102280.53;;;-4.87;100.00
60583;BME280;46415;47.536;19.066;2022-12-18T06:47:18;102294.00;;;-4.88;100.00
60583;BME280;46415;47.536;19.066;2022-12-18T06:50:21;102295.91;;;-4.84;100.00
60583;BME280;46415;47.536;19.066;2022-12-18T06:53:25;102295.09;;;-4.83;100.00
60583;BME280;46415;47.536;19.066;2022-12-18T06:56:27;102301.09;;;-4.81;100.00
60583;BME280;46415;47.536;19.066;2022-12-18T06:59:30;102315.72;;;-4.75;100.00
60583;BME280;46415;47.536;19.066;2022-12-18T07:02:33;102315.00;;;-4.73;100.00
60583;BME280;46415;47.536;19.066;2022-12-18T07:05:40;102321.97;;;-4.69;100.00
60583;BME280;46415;47.536;19.066;2022-12-18T07:08:43;102327.31;;;-4.63;100.00
60583;BME280;46415;47.536;19.066;2022-12-18T07:11:47;102327.41;;;-4.61;100.00
60583;BME280;46415;47.536;19.066;2022-12-18T07:14:49;102330.94;;;-4.58;100.00
60583;BME280;46415;47.536;19.066;2022-12-18T07:17:52;102340.47;;;-4.54;100.00
60583;BME280;46415;47.536;19.066;2022-12-18T07:20:54;102338.22;;;-4.47;100.00
60583;BME280;46415;47.536;19.066;2022-12-18T07:23:57;102343.22;;;-4.31;100.00
60583;BME280;46415;47.536;19.066;2022-12-18T07:27:00;102349.53;;;-4.23;100.00
60583;BME280;46415;47.536;19.066;2022-12-18T07:30:03;102356.50;;;-4.19;100.00
60583;BME280;46415;47.536;19.066;2022-12-18T07:33:06;102358.53;;;-4.12;100.00
60583;BME280;46415;47.536;19.066;2022-12-18T07:36:10;102368.22;;;-4.03;100.00
60583;BME280;46415;47.536;19.066;2022-12-18T07:39:13;102375.41;;;-3.95;100.00
60583;BME280;46415;47.536;19.066;2022-12-18T07:42:16;102380.31;;;-3.80;100.00
60583;BME280;46415;47.536;19.066;2022-12-18T07:45:33;102381.63;;;-3.71;100.00
60583;BME280;46415;47.536;19.066;2022-12-18T07:48:36;102386.19;;;-3.63;100.00
60583;BME280;46415;47.536;19.066;2022-12-18T07:51:39;102393.13;;;-3.59;100.00
60583;BME280;46415;47.536;19.066;2022-12-18T07:54:42;102397.03;;;-3.48;100.00
60583;BME280;46415;47.536;19.066;2022-12-18T07:57:44;102402.28;;;-3.44;100.00
60583;BME280;46415;47.536;19.066;2022-12-18T08:04:08;102412.94;;;-3.33;100.00
60583;BME280;46415;47.536;19.066;2022-12-18T08:07:10;102416.69;;;-3.25;100.00
60583;BME280;46415;47.536;19.066;2022-12-18T08:10:13;102421.25;;;-3.18;100.00
60583;BME280;46415;47.536;19.066;2022-12-18T08:13:15;102417.50;;;-3.07;100.00
60583;BME280;46415;47.536;19.066;2022-12-18T08:16:19;102428.91;;;-2.99;100.00
60583;BME280;46415;47.536;19.066;2022-12-18T08:19:22;102431.16;;;-3.05;100.00
60583;BME280;46415;47.536;19.066;2022-12-18T08:22:25;102432.31;;;-2.98;100.00
60583;BME280;46415;47.536;19.066;2022-12-18T08:25:27;102431.16;;;-2.85;100.00
60583;BME280;46415;47.536;19.066;2022-12-18T08:28:30;102435.50;;;-2.83;100.00
60583;BME280;46415;47.536;19.066;2022-12-18T08:31:32;102443.50;;;-2.74;100.00
60583;BME280;46415;47.536;19.066;2022-12-18T08:34:36;102439.63;;;-2.66;100.00
60583;BME280;46415;47.536;19.066;2022-12-18T08:37:38;102445.97;;;-2.56;100.00
60583;BME280;46415;47.536;19.066;2022-12-18T08:40:41;102447.25;;;-2.47;100.00
60583;BME280;46415;47.536;19.066;2022-12-18T08:43:44;102446.38;;;-2.47;100.00
60583;BME280;46415;47.536;19.066;2022-12-18T08:47:06;102449.63;;;-2.30;100.00
60583;BME280;46415;47.536;19.066;2022-12-18T08:50:09;102439.28;;;-2.14;100.00
60583;BME280;46415;47.536;19.066;2022-12-18T08:53:13;102443.78;;;-2.09;100.00
60583;BME280;46415;47.536;19.066;2022-12-18T08:56:16;102442.63;;;-1.94;100.00
60583;BME280;46415;47.536;19.066;2022-12-18T08:59:19;102452.69;;;-1.77;100.00
60583;BME280;46415;47.536;19.066;2022-12-18T09:02:22;102456.97;;;-1.76;100.00
60583;BME280;46415;47.536;19.066;2022-12-18T09:05:25;102461.09;;;-1.57;100.00
60583;BME280;46415;47.536;19.066;2022-12-18T09:08:29;102466.50;;;-1.49;100.00
60583;BME280;46415;47.536;19.066;2022-12-18T09:11:32;102473.75;;;-1.38;100.00
60583;BME280;46415;47.536;19.066;2022-12-18T09:14:35;102480.28;;;-1.22;100.00
60583;BME280;46415;47.536;19.066;2022-12-18T09:17:38;102483.13;;;-1.14;100.00
60583;BME280;46415;47.536;19.066;2022-12-18T09:20:41;102481.03;;;-1.02;100.00
60583;BME280;46415;47.536;19.066;2022-12-18T09:23:52;102479.47;;;-0.99;100.00
60583;BME280;46415;47.536;19.066;2022-12-18T09:26:54;102476.75;;;-1.03;100.00
60583;BME280;46415;47.536;19.066;2022-12-18T09:29:59;102470.22;;;-0.95;100.00
60583;BME280;46415;47.536;19.066;2022-12-18T09:33:02;102476.63;;;-0.84;99.97
60583;BME280;46415;47.536;19.066;2022-12-18T09:36:07;102474.22;;;-0.79;99.31
60583;BME280;46415;47.536;19.066;2022-12-18T09:39:09;102478.56;;;-0.77;99.54
60583;BME280;46415;47.536;19.066;2022-12-18T09:42:19;102471.56;;;-0.59;98.18
60583;BME280;46415;47.536;19.066;2022-12-18T09:45:23;102470.16;;;-0.51;97.92
60583;BME280;46415;47.536;19.066;2022-12-18T09:48:38;102464.34;;;-0.47;97.26
60583;BME280;46415;47.536;19.066;2022-12-18T09:51:50;102467.09;;;-0.41;97.91
60583;BME280;46415;47.536;19.066;2022-12-18T09:58:06;102471.22;;;-0.20;96.44
60583;BME280;46415;47.536;19.066;2022-12-18T10:01:21;102459.63;;;-0.11;95.95
60583;BME280;46415;47.536;19.066;2022-12-18T10:04:27;102469.38;;;0.01;95.12
60583;BME280;46415;47.536;19.066;2022-12-18T10:08:13;102465.28;;;0.06;92.19
60583;BME280;46415;47.536;19.066;2022-12-18T10:11:36;102463.22;;;0.21;94.20
60583;BME280;46415;47.536;19.066;2022-12-18T10:14:50;102460.81;;;0.26;95.04
60583;BME280;46415;47.536;19.066;2022-12-18T10:21:12;102465.56;;;0.40;88.49
60583;BME280;46415;47.536;19.066;2022-12-18T10:24:29;102460.75;;;0.51;86.64
60583;BME280;46415;47.536;19.066;2022-12-18T10:27:34;102465.25;;;0.58;87.28
60583;BME280;46415;47.536;19.066;2022-12-18T10:30:39;102462.69;;;0.58;88.00
60583;BME280;46415;47.536;19.066;2022-12-18T10:33:42;102456.78;;;0.61;88.51
60583;BME280;46415;47.536;19.066;2022-12-18T10:36:47;102451.69;;;0.61;88.40
60583;BME280;46415;47.536;19.066;2022-12-18T10:43:13;102447.13;;;0.79;86.97
60583;BME280;46415;47.536;19.066;2022-12-18T10:46:17;102455.72;;;0.81;86.01
60583;BME280;46415;47.536;19.066;2022-12-18T10:49:26;102461.63;;;0.80;85.02
60583;BME280;46415;47.536;19.066;2022-12-18T10:52:29;102462.62;;;0.85;85.77
60583;BME280;46415;47.536;19.066;2022-12-18T10:55:35;102452.88;;;1.00;85.41
60583;BME280;46415;47.536;19.066;2022-12-18T10:58:39;102453.75;;;1.02;84.25
60583;BME280;46415;47.536;19.066;2022-12-18T11:01:54;102450.37;;;1.03;84.12
60583;BME280;46415;47.536;19.066;2022-12-18T11:05:00;102454.00;;;1.10;83.99
60583;BME280;46415;47.536;19.066;2022-12-18T11:08:03;102453.22;;;1.12;84.29
60583;BME280;46415;47.536;19.066;2022-12-18T11:17:50;102439.09;;;1.27;80.79
60583;BME280;46415;47.536;19.066;2022-12-18T11:20:57;102437.69;;;1.36;81.50
60583;BME280;46415;47.536;19.066;2022-12-18T11:24:01;102442.25;;;1.48;81.21
60583;BME280;46415;47.536;19.066;2022-12-18T11:27:05;102442.41;;;1.54;78.52
60583;BME280;46415;47.536;19.066;2022-12-18T11:30:22;102444.88;;;1.51;78.81
60583;BME280;46415;47.536;19.066;2022-12-18T11:33:25;102442.50;;;1.57;78.87
60583;BME280;46415;47.536;19.066;2022-12-18T11:36:32;102435.88;;;1.65;79.54
60583;BME280;46415;47.536;19.066;2022-12-18T11:39:40;102437.06;;;1.78;78.93
60583;BME280;46415;47.536;19.066;2022-12-18T11:42:52;102423.25;;;1.71;78.31
60583;BME280;46415;47.536;19.066;2022-12-18T11:46:06;102419.97;;;1.77;78.21
60583;BME280;46415;47.536;19.066;2022-12-18T11:49:14;102432.25;;;1.90;77.96
60583;BME280;46415;47.536;19.066;2022-12-18T11:52:26;102431.59;;;1.98;76.59
60583;BME280;46415;47.536;19.066;2022-12-18T11:55:41;102424.44;;;1.85;74.12
60583;BME280;46415;47.536;19.066;2022-12-18T12:05:34;102415.34;;;1.96;74.52
60583;BME280;46415;47.536;19.066;2022-12-18T12:22:00;102403.53;;;2.03;74.81
60583;BME280;46415;47.536;19.066;2022-12-18T12:38:41;102410.41;;;3.70;68.63
60583;BME280;46415;47.536;19.066;2022-12-18T12:41:54;102413.13;;;3.80;67.79
60583;BME280;46415;47.536;19.066;2022-12-18T12:45:22;102410.38;;;3.67;66.80
60583;BME280;46415;47.536;19.066;2022-12-18T12:48:58;102414.53;;;3.14;69.22
60583;BME280;46415;47.536;19.066;2022-12-18T12:52:09;102421.94;;;3.01;70.25
60583;BME280;46415;47.536;19.066;2022-12-18T12:55:21;102422.94;;;2.68;71.57
60583;BME280;46415;47.536;19.066;2022-12-18T12:58:38;102433.66;;;2.49;71.80
60583;BME280;46415;47.536;19.066;2022-12-18T13:01:59;102442.00;;;2.40;72.78
60583;BME280;46415;47.536;19.066;2022-12-18T13:05:34;102436.94;;;2.43;73.19
60583;BME280;46415;47.536;19.066;2022-12-18T13:08:54;102440.25;;;2.39;73.34
60583;BME280;46415;47.536;19.066;2022-12-18T13:12:09;102448.13;;;2.47;73.97
60583;BME280;46415;47.536;19.066;2022-12-18T13:18:51;102445.50;;;4.21;67.04
60583;BME280;46415;47.536;19.066;2022-12-18T13:21:55;102442.53;;;3.97;67.02
60583;BME280;46415;47.536;19.066;2022-12-18T13:24:59;102448.47;;;3.46;67.65
60583;BME280;46415;47.536;19.066;2022-12-18T13:28:07;102454.56;;;3.08;69.59
60583;BME280;46415;47.536;19.066;2022-12-18T13:34:25;102451.47;;;2.44;72.05
60583;BME280;46415;47.536;19.066;2022-12-18T13:43:54;102468.41;;;2.03;73.25
60583;BME280;46415;47.536;19.066;2022-12-18T13:47:01;102467.97;;;1.85;74.12
60583;BME280;46415;47.536;19.066;2022-12-18T13:50:25;102470.19;;;1.73;76.82
60583;BME280;46415;47.536;19.066;2022-12-18T13:53:42;102468.91;;;1.56;78.25
60583;BME280;46415;47.536;19.066;2022-12-18T13:56:48;102471.06;;;1.41;79.13
60583;BME280;46415;47.536;19.066;2022-12-18T13:59:51;102471.72;;;1.34;79.20
60583;BME280;46415;47.536;19.066;2022-12-18T14:02:55;102478.16;;;1.21;79.58
60583;BME280;46415;47.536;19.066;2022-12-18T14:06:04;102473.50;;;1.06;79.97
60583;BME280;46415;47.536;19.066;2022-12-18T14:09:13;102472.34;;;0.97;81.94
60583;BME280;46415;47.536;19.066;2022-12-18T14:14:35;102477.91;;;0.82;81.53
60583;BME280;46415;47.536;19.066;2022-12-18T14:17:39;102477.34;;;0.64;82.00
60583;BME280;46415;47.536;19.066;2022-12-18T14:20:46;102481.16;;;0.50;82.94
60583;BME280;46415;47.536;19.066;2022-12-18T14:24:13;102483.22;;;0.34;83.93
60583;BME280;46415;47.536;19.066;2022-12-18T14:27:24;102469.25;;;0.23;84.37
60583;BME280;46415;47.536;19.066;2022-12-18T14:30:34;102476.47;;;0.10;85.55
60583;BME280;46415;47.536;19.066;2022-12-18T14:33:37;102475.91;;;-0.07;87.16
60583;BME280;46415;47.536;19.066;2022-12-18T14:36:52;102486.72;;;-0.14;87.52
60583;BME280;46415;47.536;19.066;2022-12-18T14:40:00;102485.72;;;-0.19;87.44
60583;BME280;46415;47.536;19.066;2022-12-18T14:43:12;102487.13;;;-0.27;89.14
60583;BME280;46415;47.536;19.066;2022-12-18T14:49:37;102502.88;;;-0.39;89.83
60583;BME280;46415;47.536;19.066;2022-12-18T14:52:44;102508.63;;;-0.45;90.63
60583;BME280;46415;47.536;19.066;2022-12-18T14:55:47;102519.00;;;-0.40;90.94
60583;BME280;46415;47.536;19.066;2022-12-18T14:58:56;102529.97;;;-0.43;92.70
60583;BME280;46415;47.536;19.066;2022-12-18T15:02:19;102530.72;;;-0.45;93.93
60583;BME280;46415;47.536;19.066;2022-12-18T15:05:29;102521.37;;;-0.45;98.34
60583;BME280;46415;47.536;19.066;2022-12-18T15:08:36;102528.28;;;-0.42;97.80
60583;BME280;46415;47.536;19.066;2022-12-18T15:14:42;102542.28;;;-0.77;98.35
60583;BME280;46415;47.536;19.066;2022-12-18T15:17:45;102541.56;;;-0.97;98.61
60583;BME280;46415;47.536;19.066;2022-12-18T15:20:53;102546.13;;;-1.10;98.93
60583;BME280;46415;47.536;19.066;2022-12-18T15:23:57;102555.03;;;-1.21;98.40
60583;BME280;46415;47.536;19.066;2022-12-18T15:27:00;102549.53;;;-1.32;98.31
60583;BME280;46415;47.536;19.066;2022-12-18T15:30:23;102560.19;;;-1.41;98.66
60583;BME280;46415;47.536;19.066;2022-12-18T15:33:30;102559.84;;;-1.50;99.38
60583;BME280;46415;47.536;19.066;2022-12-18T15:36:33;102564.53;;;-1.59;100.00
60583;BME280;46415;47.536;19.066;2022-12-18T15:39:39;102570.16;;;-1.68;100.00
60583;BME280;46415;47.536;19.066;2022-12-18T15:42:42;102573.25;;;-1.75;100.00
60583;BME280;46415;47.536;19.066;2022-12-18T15:46:09;102581.75;;;-1.74;100.00
60583;BME280;46415;47.536;19.066;2022-12-18T15:49:13;102578.78;;;-1.83;100.00
60583;BME280;46415;47.536;19.066;2022-12-18T15:52:16;102593.94;;;-1.86;100.00
60583;BME280;46415;47.536;19.066;2022-12-18T15:55:28;102595.19;;;-1.97;100.00
60583;BME280;46415;47.536;19.066;2022-12-18T15:58:50;102605.00;;;-2.05;100.00
60583;BME280;46415;47.536;19.066;2022-12-18T16:01:52;102603.88;;;-2.12;100.00
60583;BME280;46415;47.536;19.066;2022-12-18T16:04:56;102602.94;;;-2.14;100.00
60583;BME280;46415;47.536;19.066;2022-12-18T16:07:58;102610.56;;;-2.14;100.00
60583;BME280;46415;47.536;19.066;2022-12-18T16:11:02;102610.38;;;-2.18;100.00
60583;BME280;46415;47.536;19.066;2022-12-18T16:14:20;102610.38;;;-2.18;100.00
60583;BME280;46415;47.536;19.066;2022-12-18T16:17:23;102612.72;;;-2.23;100.00
60583;BME280;46415;47.536;19.066;2022-12-18T16:20:26;102618.47;;;-2.27;100.00
60583;BME280;46415;47.536;19.066;2022-12-18T16:23:29;102619.72;;;-2.36;100.00
60583;BME280;46415;47.536;19.066;2022-12-18T16:26:31;102623.66;;;-2.43;100.00
60583;BME280;46415;47.536;19.066;2022-12-18T16:29:34;102627.53;;;-2.51;100.00
60583;BME280;46415;47.536;19.066;2022-12-18T16:32:37;102628.84;;;-2.59;100.00
60583;BME280;46415;47.536;19.066;2022-12-18T16:35:40;102630.41;;;-2.63;100.00
60583;BME280;46415;47.536;19.066;2022-12-18T16:38:43;102634.72;;;-2.60;100.00
60583;BME280;46415;47.536;19.066;2022-12-18T16:41:46;102630.03;;;-2.70;100.00
60583;BME280;46415;47.536;19.066;2022-12-18T16:44:49;102640.72;;;-2.77;100.00
60583;BME280;46415;47.536;19.066;2022-12-18T16:47:52;102637.22;;;-2.79;100.00
60583;BME280;46415;47.536;19.066;2022-12-18T16:51:03;102642.25;;;-2.81;100.00
60583;BME280;46415;47.536;19.066;2022-12-18T16:54:07;102650.50;;;-2.85;100.00
60583;BME280;46415;47.536;19.066;2022-12-18T16:57:16;102650.28;;;-2.90;100.00
60583;BME280;46415;47.536;19.066;2022-12-18T17:00:19;102648.41;;;-2.94;100.00
60583;BME280;46415;47.536;19.066;2022-12-18T17:03:23;102648.62;;;-2.89;100.00
60583;BME280;46415;47.536;19.066;2022-12-18T17:06:29;102647.75;;;-2.90;100.00
60583;BME280;46415;47.536;19.066;2022-12-18T17:09:32;102635.72;;;-2.94;100.00
60583;BME280;46415;47.536;19.066;2022-12-18T17:12:35;102624.00;;;-2.90;100.00
60583;BME280;46415;47.536;19.066;2022-12-18T17:15:38;102628.09;;;-2.94;100.00
60583;BME280;46415;47.536;19.066;2022-12-18T17:18:41;102628.50;;;-2.84;100.00
60583;BME280;46415;47.536;19.066;2022-12-18T17:21:47;102634.63;;;-2.81;100.00
60583;BME280;46415;47.536;19.066;2022-12-18T17:24:50;102630.94;;;-2.87;100.00